sensor_id;sensor_type;location;lat;lon;timestamp;P1;durP1;ratioP1;P2;durP2;ratioP2
48881;SDS011;57063;51.406;-2.402;2023-04-15T00:00:41;3.00;;;1.80;;
48881;SDS011;57063;51.406;-2.402;2023-04-15T00:03:07;2.03;;;1.80;;
48881;SDS011;57063;51.406;-2.402;2023-04-15T00:05:32;2.42;;;2.17;;
48881;SDS011;57063;51.406;-2.402;2023-04-15T00:07:58;1.83;;;1.50;;
48881;SDS011;57063;51.406;-2.402;2023-04-15T00:10:25;3.45;;;2.08;;
48881;SDS011;57063;51.406;-2.402;2023-04-15T00:12:51;3.13;;;1.92;;
48881;SDS011;57063;51.406;-2.402;2023-04-15T00:15:17;4.55;;;1.85;;
48881;SDS011;57063;51.406;-2.402;2023-04-15T00:17:42;3.10;;;1.98;;
48881;SDS011;57063;51.406;-2.402;2023-04-15T00:20:08;3.95;;;2.38;;
48881;SDS011;57063;51.406;-2.402;2023-04-15T00:22:34;2.85;;;2.33;;
48881;SDS011;57063;51.406;-2.402;2023-04-15T00:25:00;8.63;;;2.20;;
48881;SDS011;57063;51.406;-2.402;2023-04-15T00:27:26;3.33;;;2.25;;
48881;SDS011;57063;51.406;-2.402;2023-04-15T00:29:51;3.60;;;2.00;;
48881;SDS011;57063;51.406;-2.402;2023-04-15T00:32:16;4.75;;;2.30;;
48881;SDS011;57063;51.406;-2.402;2023-04-15T00:34:42;5.97;;;2.40;;
48881;SDS011;57063;51.406;-2.402;2023-04-15T00:37:08;4.85;;;2.40;;
48881;SDS011;57063;51.406;-2.402;2023-04-15T00:39:34;3.70;;;2.30;;
48881;SDS011;57063;51.406;-2.402;2023-04-15T00:41:59;4.63;;;2.00;;
48881;SDS011;57063;51.406;-2.402;2023-04-15T00:44:26;4.03;;;1.75;;
48881;SDS011;57063;51.406;-2.402;2023-04-15T00:46:52;3.13;;;1.80;;
48881;SDS011;57063;51.406;-2.402;2023-04-15T00:49:18;5.45;;;2.55;;
48881;SDS011;57063;51.406;-2.402;2023-04-15T00:51:44;2.72;;;1.70;;
48881;SDS011;57063;51.406;-2.402;2023-04-15T00:54:09;7.47;;;1.75;;
48881;SDS011;57063;51.406;-2.402;2023-04-15T00:56:35;6.78;;;1.90;;
48881;SDS011;57063;51.406;-2.402;2023-04-15T00:59:03;4.43;;;1.88;;
48881;SDS011;57063;51.406;-2.402;2023-04-15T01:01:28;2.72;;;1.83;;
48881;SDS011;57063;51.406;-2.402;2023-04-15T01:03:55;4.18;;;1.98;;
48881;SDS011;57063;51.406;-2.402;2023-04-15T01:06:24;3.80;;;2.08;;
48881;SDS011;57063;51.406;-2.402;2023-04-15T01:08:51;4.80;;;2.20;;
48881;SDS011;57063;51.406;-2.402;2023-04-15T01:11:18;5.85;;;2.10;;
48881;SDS011;57063;51.406;-2.402;2023-04-15T01:13:43;9.43;;;3.03;;
48881;SDS011;57063;51.406;-2.402;2023-04-15T01:16:09;7.85;;;2.10;;
48881;SDS011;57063;51.406;-2.402;2023-04-15T01:18:36;3.70;;;2.25;;
48881;SDS011;57063;51.406;-2.402;2023-04-15T01:21:03;3.67;;;1.90;;
48881;SDS011;57063;51.406;-2.402;2023-04-15T01:23:29;6.32;;;2.53;;
48881;SDS011;57063;51.406;-2.402;2023-04-15T01:25:55;3.78;;;2.53;;
48881;SDS011;57063;51.406;-2.402;2023-04-15T01:28:21;6.55;;;2.38;;
48881;SDS011;57063;51.406;-2.402;2023-04-15T01:30:47;6.10;;;2.13;;
48881;SDS011;57063;51.406;-2.402;2023-04-15T01:33:12;6.65;;;2.42;;
48881;SDS011;57063;51.406;-2.402;2023-04-15T01:35:38;5.05;;;2.08;;
48881;SDS011;57063;51.406;-2.402;2023-04-15T01:38:04;8.18;;;2.22;;
48881;SDS011;57063;51.406;-2.402;2023-04-15T01:40:31;4.97;;;2.35;;
48881;SDS011;57063;51.406;-2.402;2023-04-15T01:42:57;8.18;;;2.70;;
48881;SDS011;57063;51.406;-2.402;2023-04-15T01:45:23;5.47;;;2.33;;
48881;SDS011;57063;51.406;-2.402;2023-04-15T01:47:49;3.50;;;2.33;;
48881;SDS011;57063;51.406;-2.402;2023-04-15T01:50:14;3.15;;;1.77;;
48881;SDS011;57063;51.406;-2.402;2023-04-15T01:52:40;3.25;;;2.08;;
48881;SDS011;57063;51.406;-2.402;2023-04-15T01:55:05;4.38;;;1.88;;
48881;SDS011;57063;51.406;-2.402;2023-04-15T01:57:32;3.40;;;2.20;;
48881;SDS011;57063;51.406;-2.402;2023-04-15T01:59:58;6.28;;;2.33;;
48881;SDS011;57063;51.406;-2.402;2023-04-15T02:02:23;7.95;;;2.45;;
48881;SDS011;57063;51.406;-2.402;2023-04-15T02:04:49;7.20;;;2.38;;
48881;SDS011;57063;51.406;-2.402;2023-04-15T02:07:14;7.45;;;2.35;;
48881;SDS011;57063;51.406;-2.402;2023-04-15T02:09:40;4.20;;;2.38;;
48881;SDS011;57063;51.406;-2.402;2023-04-15T02:12:05;3.25;;;2.30;;
48881;SDS011;57063;51.406;-2.402;2023-04-15T02:14:30;4.45;;;1.98;;
48881;SDS011;57063;51.406;-2.402;2023-04-15T02:16:56;3.50;;;2.05;;
48881;SDS011;57063;51.406;-2.402;2023-04-15T02:19:21;3.58;;;1.92;;
48881;SDS011;57063;51.406;-2.402;2023-04-15T02:21:47;4.97;;;2.17;;
48881;SDS011;57063;51.406;-2.402;2023-04-15T02:24:12;5.00;;;1.95;;
48881;SDS011;57063;51.406;-2.402;2023-04-15T02:26:37;2.83;;;1.92;;
48881;SDS011;57063;51.406;-2.402;2023-04-15T02:29:03;2.75;;;1.80;;
48881;SDS011;57063;51.406;-2.402;2023-04-15T02:31:28;7.45;;;1.88;;
48881;SDS011;57063;51.406;-2.402;2023-04-15T02:33:54;5.28;;;2.13;;
48881;SDS011;57063;51.406;-2.402;2023-04-15T02:36:19;5.88;;;2.17;;
48881;SDS011;57063;51.406;-2.402;2023-04-15T02:38:45;5.72;;;2.30;;
48881;SDS011;57063;51.406;-2.402;2023-04-15T02:41:10;6.18;;;2.10;;
48881;SDS011;57063;51.406;-2.402;2023-04-15T02:43:36;4.47;;;1.95;;
48881;SDS011;57063;51.406;-2.402;2023-04-15T02:46:03;8.63;;;2.25;;
48881;SDS011;57063;51.406;-2.402;2023-04-15T02:48:29;2.75;;;1.67;;
48881;SDS011;57063;51.406;-2.402;2023-04-15T02:51:09;4.35;;;1.65;;
48881;SDS011;57063;51.406;-2.402;2023-04-15T02:53:48;4.40;;;1.67;;
48881;SDS011;57063;51.406;-2.402;2023-04-15T02:56:14;3.38;;;2.00;;
48881;SDS011;57063;51.406;-2.402;2023-04-15T02:58:41;4.00;;;2.38;;
48881;SDS011;57063;51.406;-2.402;2023-04-15T03:01:08;4.40;;;2.10;;
48881;SDS011;57063;51.406;-2.402;2023-04-15T03:03:34;13.80;;;1.98;;
48881;SDS011;57063;51.406;-2.402;2023-04-15T03:05:59;6.03;;;2.13;;
48881;SDS011;57063;51.406;-2.402;2023-04-15T03:08:25;3.15;;;2.13;;
48881;SDS011;57063;51.406;-2.402;2023-04-15T03:10:50;6.53;;;2.13;;
48881;SDS011;57063;51.406;-2.402;2023-04-15T03:13:17;4.88;;;2.28;;
48881;SDS011;57063;51.406;-2.402;2023-04-15T03:15:44;3.17;;;1.98;;
48881;SDS011;57063;51.406;-2.402;2023-04-15T03:18:10;3.83;;;1.88;;
48881;SDS011;57063;51.406;-2.402;2023-04-15T03:20:36;5.05;;;2.08;;
48881;SDS011;57063;51.406;-2.402;2023-04-15T03:23:01;4.03;;;2.00;;
48881;SDS011;57063;51.406;-2.402;2023-04-15T03:25:27;8.30;;;1.90;;
48881;SDS011;57063;51.406;-2.402;2023-04-15T03:27:52;3.08;;;1.73;;
48881;SDS011;57063;51.406;-2.402;2023-04-15T03:30:17;6.95;;;1.92;;
48881;SDS011;57063;51.406;-2.402;2023-04-15T03:32:43;2.67;;;1.95;;
48881;SDS011;57063;51.406;-2.402;2023-04-15T03:35:08;6.82;;;2.20;;
48881;SDS011;57063;51.406;-2.402;2023-04-15T03:37:34;4.95;;;1.95;;
48881;SDS011;57063;51.406;-2.402;2023-04-15T03:39:59;3.55;;;1.73;;
48881;SDS011;57063;51.406;-2.402;2023-04-15T03:42:25;6.70;;;1.83;;
48881;SDS011;57063;51.406;-2.402;2023-04-15T03:44:51;3.67;;;1.60;;
48881;SDS011;57063;51.406;-2.402;2023-04-15T03:47:16;6.78;;;2.13;;
48881;SDS011;57063;51.406;-2.402;2023-04-15T03:49:41;7.30;;;2.45;;
48881;SDS011;57063;51.406;-2.402;2023-04-15T03:52:07;2.15;;;1.63;;
48881;SDS011;57063;51.406;-2.402;2023-04-15T03:54:32;3.72;;;1.80;;
48881;SDS011;57063;51.406;-2.402;2023-04-15T03:56:57;12.25;;;4.65;;
48881;SDS011;57063;51.406;-2.402;2023-04-15T03:59:23;5.88;;;1.55;;
48881;SDS011;57063;51.406;-2.402;2023-04-15T04:01:48;3.95;;;1.50;;
48881;SDS011;57063;51.406;-2.402;2023-04-15T04:04:13;6.45;;;1.23;;
48881;SDS011;57063;51.406;-2.402;2023-04-15T04:06:39;4.13;;;1.30;;
48881;SDS011;57063;51.406;-2.402;2023-04-15T04:09:05;3.00;;;1.80;;
48881;SDS011;57063;51.406;-2.402;2023-04-15T04:11:30;1.70;;;1.30;;
48881;SDS011;57063;51.406;-2.402;2023-04-15T04:13:57;4.03;;;1.75;;
48881;SDS011;57063;51.406;-2.402;2023-04-15T04:16:22;4.95;;;1.75;;
48881;SDS011;57063;51.406;-2.402;2023-04-15T04:18:48;1.70;;;1.40;;
48881;SDS011;57063;51.406;-2.402;2023-04-15T04:21:13;7.65;;;1.23;;
48881;SDS011;57063;51.406;-2.402;2023-04-15T04:23:38;5.95;;;1.55;;
48881;SDS011;57063;51.406;-2.402;2023-04-15T04:26:04;7.18;;;1.77;;
48881;SDS011;57063;51.406;-2.402;2023-04-15T04:28:30;7.57;;;1.70;;
48881;SDS011;57063;51.406;-2.402;2023-04-15T04:30:55;9.93;;;1.90;;
48881;SDS011;57063;51.406;-2.402;2023-04-15T04:33:21;5.13;;;1.48;;
48881;SDS011;57063;51.406;-2.402;2023-04-15T04:35:46;3.28;;;1.30;;
48881;SDS011;57063;51.406;-2.402;2023-04-15T04:38:11;2.97;;;1.40;;
48881;SDS011;57063;51.406;-2.402;2023-04-15T04:40:37;4.38;;;1.38;;
48881;SDS011;57063;51.406;-2.402;2023-04-15T04:43:02;2.78;;;1.70;;
48881;SDS011;57063;51.406;-2.402;2023-04-15T04:45:28;5.90;;;1.80;;
48881;SDS011;57063;51.406;-2.402;2023-04-15T04:47:53;6.82;;;1.45;;
48881;SDS011;57063;51.406;-2.402;2023-04-15T04:50:19;3.80;;;2.35;;
48881;SDS011;57063;51.406;-2.402;2023-04-15T04:52:45;2.92;;;1.60;;
48881;SDS011;57063;51.406;-2.402;2023-04-15T04:55:10;5.57;;;1.70;;
48881;SDS011;57063;51.406;-2.402;2023-04-15T04:57:36;1.45;;;1.20;;
48881;SDS011;57063;51.406;-2.402;2023-04-15T05:00:03;9.98;;;1.80;;
48881;SDS011;57063;51.406;-2.402;2023-04-15T05:02:29;3.60;;;1.70;;
48881;SDS011;57063;51.406;-2.402;2023-04-15T05:04:56;5.88;;;1.58;;
48881;SDS011;57063;51.406;-2.402;2023-04-15T05:07:21;5.05;;;1.75;;
48881;SDS011;57063;51.406;-2.402;2023-04-15T05:09:47;4.45;;;1.40;;
48881;SDS011;57063;51.406;-2.402;2023-04-15T05:12:12;8.20;;;1.92;;
48881;SDS011;57063;51.406;-2.402;2023-04-15T05:14:39;7.72;;;2.13;;
48881;SDS011;57063;51.406;-2.402;2023-04-15T05:17:05;6.82;;;1.80;;
48881;SDS011;57063;51.406;-2.402;2023-04-15T05:19:31;3.30;;;1.73;;
48881;SDS011;57063;51.406;-2.402;2023-04-15T05:21:56;8.98;;;1.98;;
48881;SDS011;57063;51.406;-2.402;2023-04-15T05:24:22;3.03;;;1.60;;
48881;SDS011;57063;51.406;-2.402;2023-04-15T05:26:47;3.78;;;1.77;;
48881;SDS011;57063;51.406;-2.402;2023-04-15T05:29:12;3.50;;;1.45;;
48881;SDS011;57063;51.406;-2.402;2023-04-15T05:31:38;3.17;;;1.63;;
48881;SDS011;57063;51.406;-2.402;2023-04-15T05:34:03;6.57;;;1.73;;
48881;SDS011;57063;51.406;-2.402;2023-04-15T05:36:29;7.63;;;1.90;;
48881;SDS011;57063;51.406;-2.402;2023-04-15T05:38:55;3.70;;;1.67;;
48881;SDS011;57063;51.406;-2.402;2023-04-15T05:41:21;3.53;;;2.00;;
48881;SDS011;57063;51.406;-2.402;2023-04-15T05:43:47;4.00;;;1.85;;
48881;SDS011;57063;51.406;-2.402;2023-04-15T05:46:12;5.85;;;1.67;;
48881;SDS011;57063;51.406;-2.402;2023-04-15T05:48:37;5.10;;;2.55;;
48881;SDS011;57063;51.406;-2.402;2023-04-15T05:51:03;5.20;;;1.70;;
48881;SDS011;57063;51.406;-2.402;2023-04-15T05:53:28;6.97;;;2.10;;
48881;SDS011;57063;51.406;-2.402;2023-04-15T05:55:54;5.38;;;2.10;;
48881;SDS011;57063;51.406;-2.402;2023-04-15T05:58:19;7.95;;;2.38;;
48881;SDS011;57063;51.406;-2.402;2023-04-15T06:00:45;3.13;;;1.80;;
48881;SDS011;57063;51.406;-2.402;2023-04-15T06:03:11;6.13;;;2.25;;
48881;SDS011;57063;51.406;-2.402;2023-04-15T06:05:37;4.18;;;1.90;;
48881;SDS011;57063;51.406;-2.402;2023-04-15T06:08:02;5.65;;;2.00;;
48881;SDS011;57063;51.406;-2.402;2023-04-15T06:10:28;4.32;;;2.10;;
48881;SDS011;57063;51.406;-2.402;2023-04-15T06:12:58;4.72;;;2.10;;
48881;SDS011;57063;51.406;-2.402;2023-04-15T06:15:23;2.75;;;1.10;;
48881;SDS011;57063;51.406;-2.402;2023-04-15T06:17:49;9.02;;;2.10;;
48881;SDS011;57063;51.406;-2.402;2023-04-15T06:20:14;4.13;;;1.48;;
48881;SDS011;57063;51.406;-2.402;2023-04-15T06:22:40;4.25;;;1.52;;
48881;SDS011;57063;51.406;-2.402;2023-04-15T06:25:05;2.63;;;1.67;;
48881;SDS011;57063;51.406;-2.402;2023-04-15T06:27:32;8.05;;;1.65;;
48881;SDS011;57063;51.406;-2.402;2023-04-15T06:29:58;7.05;;;2.03;;
48881;SDS011;57063;51.406;-2.402;2023-04-15T06:32:23;3.25;;;1.30;;
48881;SDS011;57063;51.406;-2.402;2023-04-15T06:34:48;2.78;;;1.50;;
48881;SDS011;57063;51.406;-2.402;2023-04-15T06:37:14;4.18;;;1.65;;
48881;SDS011;57063;51.406;-2.402;2023-04-15T06:39:40;6.55;;;1.88;;
48881;SDS011;57063;51.406;-2.402;2023-04-15T06:42:07;7.32;;;1.42;;
48881;SDS011;57063;51.406;-2.402;2023-04-15T06:44:33;3.72;;;1.58;;
48881;SDS011;57063;51.406;-2.402;2023-04-15T06:46:58;7.13;;;2.92;;
48881;SDS011;57063;51.406;-2.402;2023-04-15T06:52:24;1.20;;;1.10;;
48881;SDS011;57063;51.406;-2.402;2023-04-15T06:54:50;1.83;;;1.10;;
48881;SDS011;57063;51.406;-2.402;2023-04-15T06:57:15;3.95;;;1.08;;
48881;SDS011;57063;51.406;-2.402;2023-04-15T06:59:41;1.33;;;0.82;;
48881;SDS011;57063;51.406;-2.402;2023-04-15T07:02:10;4.05;;;0.68;;
48881;SDS011;57063;51.406;-2.402;2023-04-15T07:04:40;5.05;;;1.08;;
48881;SDS011;57063;51.406;-2.402;2023-04-15T07:07:07;6.75;;;1.08;;
48881;SDS011;57063;51.406;-2.402;2023-04-15T07:09:33;2.72;;;0.90;;
48881;SDS011;57063;51.406;-2.402;2023-04-15T07:11:58;6.38;;;1.10;;
48881;SDS011;57063;51.406;-2.402;2023-04-15T07:14:24;3.15;;;1.38;;
48881;SDS011;57063;51.406;-2.402;2023-04-15T07:16:49;4.45;;;1.38;;
48881;SDS011;57063;51.406;-2.402;2023-04-15T07:19:15;3.90;;;1.75;;
48881;SDS011;57063;51.406;-2.402;2023-04-15T07:21:41;4.30;;;1.48;;
48881;SDS011;57063;51.406;-2.402;2023-04-15T07:24:06;3.05;;;1.75;;
48881;SDS011;57063;51.406;-2.402;2023-04-15T07:26:32;2.00;;;1.23;;
48881;SDS011;57063;51.406;-2.402;2023-04-15T07:28:58;3.17;;;0.90;;
48881;SDS011;57063;51.406;-2.402;2023-04-15T07:31:23;1.33;;;0.82;;
48881;SDS011;57063;51.406;-2.402;2023-04-15T07:33:49;2.03;;;1.02;;
48881;SDS011;57063;51.406;-2.402;2023-04-15T07:36:14;1.65;;;0.85;;
48881;SDS011;57063;51.406;-2.402;2023-04-15T07:38:39;6.75;;;1.25;;
48881;SDS011;57063;51.406;-2.402;2023-04-15T07:41:05;3.15;;;1.15;;
48881;SDS011;57063;51.406;-2.402;2023-04-15T07:43:31;18.75;;;2.25;;
48881;SDS011;57063;51.406;-2.402;2023-04-15T07:45:56;2.65;;;1.48;;
48881;SDS011;57063;51.406;-2.402;2023-04-15T07:48:21;3.85;;;1.23;;
48881;SDS011;57063;51.406;-2.402;2023-04-15T07:50:47;2.35;;;1.08;;
48881;SDS011;57063;51.406;-2.402;2023-04-15T07:53:12;3.97;;;1.27;;
48881;SDS011;57063;51.406;-2.402;2023-04-15T07:55:38;1.85;;;1.20;;
48881;SDS011;57063;51.406;-2.402;2023-04-15T07:58:04;3.08;;;1.52;;
48881;SDS011;57063;51.406;-2.402;2023-04-15T08:00:30;3.60;;;1.50;;
48881;SDS011;57063;51.406;-2.402;2023-04-15T08:02:56;3.08;;;1.10;;
48881;SDS011;57063;51.406;-2.402;2023-04-15T08:05:23;6.07;;;1.88;;
48881;SDS011;57063;51.406;-2.402;2023-04-15T08:07:49;4.65;;;1.42;;
48881;SDS011;57063;51.406;-2.402;2023-04-15T08:10:15;3.70;;;1.30;;
48881;SDS011;57063;51.406;-2.402;2023-04-15T08:12:41;5.90;;;1.48;;
48881;SDS011;57063;51.406;-2.402;2023-04-15T08:15:07;3.03;;;1.42;;
48881;SDS011;57063;51.406;-2.402;2023-04-15T08:17:33;4.57;;;1.45;;
48881;SDS011;57063;51.406;-2.402;2023-04-15T08:19:58;3.72;;;1.30;;
48881;SDS011;57063;51.406;-2.402;2023-04-15T08:22:24;5.03;;;1.75;;
48881;SDS011;57063;51.406;-2.402;2023-04-15T08:24:49;6.65;;;2.80;;
48881;SDS011;57063;51.406;-2.402;2023-04-15T08:27:15;1.80;;;0.98;;
48881;SDS011;57063;51.406;-2.402;2023-04-15T08:29:41;5.75;;;1.63;;
48881;SDS011;57063;51.406;-2.402;2023-04-15T08:32:06;7.18;;;1.67;;
48881;SDS011;57063;51.406;-2.402;2023-04-15T08:34:33;3.90;;;1.70;;
48881;SDS011;57063;51.406;-2.402;2023-04-15T08:36:59;4.97;;;1.80;;
48881;SDS011;57063;51.406;-2.402;2023-04-15T08:39:24;6.75;;;1.85;;
48881;SDS011;57063;51.406;-2.402;2023-04-15T08:44:16;8.15;;;1.88;;
48881;SDS011;57063;51.406;-2.402;2023-04-15T08:46:42;4.47;;;1.58;;
48881;SDS011;57063;51.406;-2.402;2023-04-15T08:49:11;4.55;;;2.03;;
48881;SDS011;57063;51.406;-2.402;2023-04-15T08:51:40;3.38;;;1.80;;
48881;SDS011;57063;51.406;-2.402;2023-04-15T08:54:07;6.75;;;2.15;;
48881;SDS011;57063;51.406;-2.402;2023-04-15T08:56:32;4.55;;;2.00;;
48881;SDS011;57063;51.406;-2.402;2023-04-15T08:58:58;3.70;;;1.95;;
48881;SDS011;57063;51.406;-2.402;2023-04-15T09:01:24;4.00;;;2.00;;
48881;SDS011;57063;51.406;-2.402;2023-04-15T09:03:50;7.32;;;2.58;;
48881;SDS011;57063;51.406;-2.402;2023-04-15T09:06:17;5.85;;;2.08;;
48881;SDS011;57063;51.406;-2.402;2023-04-15T09:08:42;6.60;;;2.10;;
48881;SDS011;57063;51.406;-2.402;2023-04-15T09:11:09;5.82;;;1.85;;
48881;SDS011;57063;51.406;-2.402;2023-04-15T09:13:35;7.28;;;1.95;;
48881;SDS011;57063;51.406;-2.402;2023-04-15T09:16:01;4.00;;;1.98;;
48881;SDS011;57063;51.406;-2.402;2023-04-15T09:18:32;3.08;;;1.35;;
48881;SDS011;57063;51.406;-2.402;2023-04-15T09:21:08;4.75;;;2.10;;
48881;SDS011;57063;51.406;-2.402;2023-04-15T09:23:36;3.88;;;2.00;;
48881;SDS011;57063;51.406;-2.402;2023-04-15T09:26:03;8.30;;;2.35;;
48881;SDS011;57063;51.406;-2.402;2023-04-15T09:28:29;6.43;;;1.77;;
48881;SDS011;57063;51.406;-2.402;2023-04-15T09:30:59;4.05;;;1.80;;
48881;SDS011;57063;51.406;-2.402;2023-04-15T09:33:26;5.20;;;1.75;;
48881;SDS011;57063;51.406;-2.402;2023-04-15T09:35:58;11.23;;;2.38;;
48881;SDS011;57063;51.406;-2.402;2023-04-15T09:38:31;3.35;;;1.75;;
48881;SDS011;57063;51.406;-2.402;2023-04-15T09:40:57;4.63;;;1.73;;
48881;SDS011;57063;51.406;-2.402;2023-04-15T09:59:13;3.00;;;1.30;;
48881;SDS011;57063;51.406;-2.402;2023-04-15T10:04:27;3.55;;;1.30;;
48881;SDS011;57063;51.406;-2.402;2023-04-15T10:07:01;4.70;;;2.22;;
48881;SDS011;57063;51.406;-2.402;2023-04-15T10:09:29;3.78;;;1.48;;
48881;SDS011;57063;51.406;-2.402;2023-04-15T10:15:04;3.45;;;1.77;;
48881;SDS011;57063;51.406;-2.402;2023-04-15T10:17:31;4.47;;;2.33;;
48881;SDS011;57063;51.406;-2.402;2023-04-15T10:20:02;4.90;;;1.80;;
48881;SDS011;57063;51.406;-2.402;2023-04-15T10:22:32;5.70;;;2.20;;
48881;SDS011;57063;51.406;-2.402;2023-04-15T10:24:58;4.32;;;2.65;;
48881;SDS011;57063;51.406;-2.402;2023-04-15T10:27:26;4.03;;;2.08;;
48881;SDS011;57063;51.406;-2.402;2023-04-15T10:29:56;4.78;;;2.20;;
48881;SDS011;57063;51.406;-2.402;2023-04-15T10:32:24;4.07;;;2.20;;
48881;SDS011;57063;51.406;-2.402;2023-04-15T10:34:50;3.80;;;2.00;;
48881;SDS011;57063;51.406;-2.402;2023-04-15T10:37:32;5.47;;;2.55;;
48881;SDS011;57063;51.406;-2.402;2023-04-15T10:40:00;6.13;;;2.60;;
48881;SDS011;57063;51.406;-2.402;2023-04-15T10:42:32;8.18;;;2.47;;
48881;SDS011;57063;51.406;-2.402;2023-04-15T10:44:59;5.45;;;2.40;;
48881;SDS011;57063;51.406;-2.402;2023-04-15T10:47:24;9.50;;;3.05;;
48881;SDS011;57063;51.406;-2.402;2023-04-15T10:49:59;4.35;;;2.58;;
48881;SDS011;57063;51.406;-2.402;2023-04-15T10:52:27;5.47;;;3.03;;
48881;SDS011;57063;51.406;-2.402;2023-04-15T10:55:15;4.28;;;2.40;;
48881;SDS011;57063;51.406;-2.402;2023-04-15T10:57:43;5.53;;;2.80;;
48881;SDS011;57063;51.406;-2.402;2023-04-15T11:00:15;4.93;;;2.42;;
48881;SDS011;57063;51.406;-2.402;2023-04-15T11:02:59;8.70;;;3.38;;
48881;SDS011;57063;51.406;-2.402;2023-04-15T11:08:05;4.90;;;2.63;;
48881;SDS011;57063;51.406;-2.402;2023-04-15T11:13:04;5.88;;;2.00;;
48881;SDS011;57063;51.406;-2.402;2023-04-15T11:20:36;6.18;;;2.45;;
48881;SDS011;57063;51.406;-2.402;2023-04-15T11:23:02;4.35;;;2.28;;
48881;SDS011;57063;51.406;-2.402;2023-04-15T11:25:29;2.90;;;1.67;;
48881;SDS011;57063;51.406;-2.402;2023-04-15T11:27:56;3.33;;;1.98;;
48881;SDS011;57063;51.406;-2.402;2023-04-15T13:40:12;5.93;;;0.90;;
48881;SDS011;57063;51.406;-2.402;2023-04-15T13:42:37;2.25;;;0.80;;
48881;SDS011;57063;51.406;-2.402;2023-04-15T13:45:03;2.22;;;0.98;;
48881;SDS011;57063;51.406;-2.402;2023-04-15T13:47:28;2.10;;;0.90;;
48881;SDS011;57063;51.406;-2.402;2023-04-15T13:49:54;0.82;;;0.73;;
48881;SDS011;57063;51.406;-2.402;2023-04-15T13:52:22;3.40;;;1.08;;
48881;SDS011;57063;51.406;-2.402;2023-04-15T13:54:47;2.67;;;0.85;;
48881;SDS011;57063;51.406;-2.402;2023-04-15T13:57:13;1.58;;;1.10;;
48881;SDS011;57063;51.406;-2.402;2023-04-15T13:59:39;1.50;;;1.00;;
48881;SDS011;57063;51.406;-2.402;2023-04-15T14:02:05;5.22;;;1.27;;
48881;SDS011;57063;51.406;-2.402;2023-04-15T14:04:30;1.17;;;0.80;;
48881;SDS011;57063;51.406;-2.402;2023-04-15T14:06:57;2.33;;;1.20;;
48881;SDS011;57063;51.406;-2.402;2023-04-15T14:09:22;4.03;;;1.00;;
48881;SDS011;57063;51.406;-2.402;2023-04-15T14:11:51;4.00;;;1.10;;
48881;SDS011;57063;51.406;-2.402;2023-04-15T14:14:17;5.75;;;1.05;;
48881;SDS011;57063;51.406;-2.402;2023-04-15T14:16:42;3.63;;;1.23;;
48881;SDS011;57063;51.406;-2.402;2023-04-15T14:19:08;4.40;;;1.13;;
48881;SDS011;57063;51.406;-2.402;2023-04-15T14:21:33;2.78;;;0.80;;
48881;SDS011;57063;51.406;-2.402;2023-04-15T14:23:58;3.17;;;1.00;;
48881;SDS011;57063;51.406;-2.402;2023-04-15T14:26:24;2.60;;;1.20;;
48881;SDS011;57063;51.406;-2.402;2023-04-15T14:28:52;3.10;;;0.85;;
48881;SDS011;57063;51.406;-2.402;2023-04-15T14:31:19;2.55;;;1.20;;
48881;SDS011;57063;51.406;-2.402;2023-04-15T14:33:45;3.78;;;1.10;;
48881;SDS011;57063;51.406;-2.402;2023-04-15T14:36:16;1.65;;;0.93;;
48881;SDS011;57063;51.406;-2.402;2023-04-15T14:39:04;1.65;;;0.70;;
48881;SDS011;57063;51.406;-2.402;2023-04-15T14:41:32;1.80;;;0.90;;
48881;SDS011;57063;51.406;-2.402;2023-04-15T14:43:58;1.45;;;0.75;;
48881;SDS011;57063;51.406;-2.402;2023-04-15T14:46:24;1.65;;;0.60;;
48881;SDS011;57063;51.406;-2.402;2023-04-15T14:48:50;1.95;;;1.00;;
48881;SDS011;57063;51.406;-2.402;2023-04-15T14:51:15;1.20;;;0.90;;
48881;SDS011;57063;51.406;-2.402;2023-04-15T14:53:41;4.32;;;1.00;;
48881;SDS011;57063;51.406;-2.402;2023-04-15T14:56:06;3.22;;;0.82;;
48881;SDS011;57063;51.406;-2.402;2023-04-15T14:58:32;1.35;;;0.70;;
48881;SDS011;57063;51.406;-2.402;2023-04-15T15:00:57;2.85;;;1.10;;
48881;SDS011;57063;51.406;-2.402;2023-04-15T15:03:25;1.60;;;1.10;;
48881;SDS011;57063;51.406;-2.402;2023-04-15T15:05:51;2.53;;;0.95;;
48881;SDS011;57063;51.406;-2.402;2023-04-15T15:08:16;2.75;;;1.15;;
48881;SDS011;57063;51.406;-2.402;2023-04-15T15:10:43;1.90;;;1.00;;
48881;SDS011;57063;51.406;-2.402;2023-04-15T15:13:10;2.30;;;1.02;;
48881;SDS011;57063;51.406;-2.402;2023-04-15T15:15:37;6.10;;;1.10;;
48881;SDS011;57063;51.406;-2.402;2023-04-15T15:18:03;2.97;;;1.10;;
48881;SDS011;57063;51.406;-2.402;2023-04-15T15:20:29;3.53;;;1.35;;
48881;SDS011;57063;51.406;-2.402;2023-04-15T15:22:55;2.47;;;0.93;;
48881;SDS011;57063;51.406;-2.402;2023-04-15T15:25:20;2.65;;;1.35;;
48881;SDS011;57063;51.406;-2.402;2023-04-15T15:27:46;2.85;;;0.80;;
48881;SDS011;57063;51.406;-2.402;2023-04-15T15:30:15;2.65;;;0.98;;
48881;SDS011;57063;51.406;-2.402;2023-04-15T15:32:41;2.78;;;0.93;;
48881;SDS011;57063;51.406;-2.402;2023-04-15T15:35:07;3.38;;;0.82;;
48881;SDS011;57063;51.406;-2.402;2023-04-15T15:37:33;1.85;;;1.10;;
48881;SDS011;57063;51.406;-2.402;2023-04-15T15:39:59;3.83;;;1.15;;
48881;SDS011;57063;51.406;-2.402;2023-04-15T15:42:25;4.07;;;1.20;;
48881;SDS011;57063;51.406;-2.402;2023-04-15T15:44:51;3.05;;;0.68;;
48881;SDS011;57063;51.406;-2.402;2023-04-15T15:47:20;1.85;;;0.88;;
48881;SDS011;57063;51.406;-2.402;2023-04-15T15:49:45;2.28;;;1.40;;
48881;SDS011;57063;51.406;-2.402;2023-04-15T15:52:11;2.08;;;1.10;;
48881;SDS011;57063;51.406;-2.402;2023-04-15T15:54:36;3.17;;;1.15;;
48881;SDS011;57063;51.406;-2.402;2023-04-15T15:57:03;2.00;;;1.10;;
48881;SDS011;57063;51.406;-2.402;2023-04-15T15:59:28;1.95;;;0.98;;
48881;SDS011;57063;51.406;-2.402;2023-04-15T16:01:54;2.47;;;1.13;;
48881;SDS011;57063;51.406;-2.402;2023-04-15T16:04:19;1.30;;;0.82;;
48881;SDS011;57063;51.406;-2.402;2023-04-15T16:06:44;1.92;;;0.98;;
48881;SDS011;57063;51.406;-2.402;2023-04-15T16:09:10;1.75;;;0.80;;
48881;SDS011;57063;51.406;-2.402;2023-04-15T16:11:36;3.00;;;1.10;;
48881;SDS011;57063;51.406;-2.402;2023-04-15T16:14:02;1.23;;;0.77;;
48881;SDS011;57063;51.406;-2.402;2023-04-15T16:16:27;2.70;;;1.10;;
48881;SDS011;57063;51.406;-2.402;2023-04-15T16:18:53;1.38;;;0.80;;
48881;SDS011;57063;51.406;-2.402;2023-04-15T16:21:19;1.48;;;0.93;;
48881;SDS011;57063;51.406;-2.402;2023-04-15T16:23:45;3.17;;;1.00;;
48881;SDS011;57063;51.406;-2.402;2023-04-15T16:26:10;1.98;;;0.85;;
48881;SDS011;57063;51.406;-2.402;2023-04-15T16:28:40;3.08;;;0.85;;
48881;SDS011;57063;51.406;-2.402;2023-04-15T16:31:05;5.75;;;0.82;;
48881;SDS011;57063;51.406;-2.402;2023-04-15T16:33:31;2.25;;;0.82;;
48881;SDS011;57063;51.406;-2.402;2023-04-15T16:35:56;1.83;;;0.93;;
48881;SDS011;57063;51.406;-2.402;2023-04-15T16:38:22;1.75;;;0.80;;
48881;SDS011;57063;51.406;-2.402;2023-04-15T16:40:47;1.38;;;0.70;;
48881;SDS011;57063;51.406;-2.402;2023-04-15T16:43:12;1.08;;;0.63;;
48881;SDS011;57063;51.406;-2.402;2023-04-15T16:45:38;3.10;;;0.90;;
48881;SDS011;57063;51.406;-2.402;2023-04-15T16:48:04;5.03;;;2.45;;
48881;SDS011;57063;51.406;-2.402;2023-04-15T16:50:30;2.13;;;0.82;;
48881;SDS011;57063;51.406;-2.402;2023-04-15T16:52:55;1.92;;;0.90;;
48881;SDS011;57063;51.406;-2.402;2023-04-15T16:55:21;1.92;;;1.00;;
48881;SDS011;57063;51.406;-2.402;2023-04-15T16:57:46;1.80;;;1.00;;
48881;SDS011;57063;51.406;-2.402;2023-04-15T17:00:12;2.55;;;0.90;;
48881;SDS011;57063;51.406;-2.402;2023-04-15T17:02:38;3.42;;;1.20;;
48881;SDS011;57063;51.406;-2.402;2023-04-15T17:05:03;3.70;;;1.27;;
48881;SDS011;57063;51.406;-2.402;2023-04-15T17:07:29;6.70;;;1.23;;
48881;SDS011;57063;51.406;-2.402;2023-04-15T17:09:54;2.78;;;1.23;;
48881;SDS011;57063;51.406;-2.402;2023-04-15T17:12:20;1.85;;;0.73;;
48881;SDS011;57063;51.406;-2.402;2023-04-15T17:14:45;2.35;;;0.73;;